Time;durP1;ratioP1;P1;durP2;ratioP2;P2;SDS_P1;SDS_P2;PMS_P1;PMS_P2;Temp;Humidity;BMP_temperature;BMP_pressure;BME280_temperature;BME280_humidity;BME280_pressure;Samples;Min_cycle;Max_cycle;Signal;HPM_P1;HPM_P2
2022/01/18 00:00:03;;;;;;;5.05;3.90;;;;;;;;;;5112728;28;20085;-77
2022/01/18 00:02:29;;;;;;;5.55;3.97;;;;;;;;;;5112135;28;20501;-78
2022/01/18 00:04:55;;;;;;;5.03;4.00;;;;;;;;;;5112550;28;20094;-77
2022/01/18 00:07:21;;;;;;;5.28;4.10;;;;;;;;;;5112391;28;20052;-76
2022/01/18 00:09:48;;;;;;;5.00;4.10;;;;;;;;;;5112822;28;20047;-77
2022/01/18 00:12:42;;;;;;;5.18;3.65;;;;;;;;;;5112733;28;20042;-76
2022/01/18 00:20:48;;;;;;;5.47;4.22;;;;;;;;;;5098957;28;20527;-79
2022/01/18 00:23:15;;;;;;;6.43;4.20;;;;;;;;;;5111703;28;20043;-78
2022/01/18 00:25:44;;;;;;;5.72;4.03;;;;;;;;;;5112005;28;20031;-77
2022/01/18 00:28:11;;;;;;;4.82;4.07;;;;;;;;;;5112063;28;20028;-77
2022/01/18 00:35:36;;;;;;;6.75;3.72;;;;;;;;;;5111736;28;20038;-77
2022/01/18 00:38:14;;;;;;;4.93;4.00;;;;;;;;;;5112032;28;20026;-77
2022/01/18 00:40:40;;;;;;;4.75;3.90;;;;;;;;;;5111766;28;20035;-77
2022/01/18 00:43:06;;;;;;;6.22;4.30;;;;;;;;;;5111497;28;20106;-77
2022/01/18 00:45:32;;;;;;;4.15;3.30;;;;;;;;;;5111273;28;20468;-76
2022/01/18 00:47:58;;;;;;;6.78;5.03;;;;;;;;;;5093552;28;20066;-76
2022/01/18 00:50:26;;;;;;;6.25;4.53;;;;;;;;;;5111645;28;20107;-76
2022/01/18 00:52:53;;;;;;;4.88;3.92;;;;;;;;;;5111861;28;20034;-76
2022/01/18 00:55:20;;;;;;;4.57;3.88;;;;;;;;;;5111485;28;20411;-76
2022/01/18 00:57:46;;;;;;;5.50;3.95;;;;;;;;;;5112095;28;20027;-77
2022/01/18 01:00:12;;;;;;;6.05;3.78;;;;;;;;;;5093607;28;20032;-76
2022/01/18 01:02:38;;;;;;;5.38;4.20;;;;;;;;;;5111295;28;20431;-76
2022/01/18 01:05:04;;;;;;;6.00;4.13;;;;;;;;;;5111971;28;20024;-78
2022/01/18 01:07:30;;;;;;;4.80;3.97;;;;;;;;;;5113962;28;20032;-77
2022/01/18 01:09:56;;;;;;;5.53;4.20;;;;;;;;;;5118591;28;20122;-77
2022/01/18 01:12:25;;;;;;;5.95;4.00;;;;;;;;;;5118306;28;20540;-77
2022/01/18 01:14:53;;;;;;;6.20;4.75;;;;;;;;;;5117800;28;20066;-78
2022/01/18 01:46:38;;;;;;;6.07;4.40;;;;;;;;;;5117338;28;20030;-77
2022/01/18 01:49:09;;;;;;;6.82;4.32;;;;;;;;;;5118162;28;20023;-77
2022/01/18 01:51:35;;;;;;;6.13;4.07;;;;;;;;;;5117961;28;20058;-77
2022/01/18 01:54:03;;;;;;;4.90;3.78;;;;;;;;;;5118003;28;20028;-76
2022/01/18 01:56:30;;;;;;;6.25;4.43;;;;;;;;;;5117704;28;20399;-76
2022/01/18 01:58:58;;;;;;;5.80;4.30;;;;;;;;;;5117872;28;20047;-77
2022/01/18 02:01:24;;;;;;;6.63;4.38;;;;;;;;;;5117611;28;20459;-77
2022/01/18 02:03:50;;;;;;;7.78;4.18;;;;;;;;;;5117993;28;20032;-77
2022/01/18 02:06:17;;;;;;;5.85;4.90;;;;;;;;;;5099656;28;20023;-77
2022/01/18 02:08:44;;;;;;;4.85;3.83;;;;;;;;;;5117631;28;20042;-78
2022/01/18 02:11:10;;;;;;;5.78;4.07;;;;;;;;;;5117865;28;20030;-78
2022/01/18 02:13:36;;;;;;;6.55;4.15;;;;;;;;;;5117541;28;20031;-78
2022/01/18 02:24:03;;;;;;;6.30;4.30;;;;;;;;;;5114897;28;20066;-77
2022/01/18 02:26:29;;;;;;;3.88;3.45;;;;;;;;;;5114343;28;20016;-78
2022/01/18 02:28:58;;;;;;;5.00;4.07;;;;;;;;;;5114525;28;20445;-77
2022/01/18 02:31:24;;;;;;;5.07;3.92;;;;;;;;;;5114182;28;20028;-79
2022/01/18 02:33:50;;;;;;;5.50;3.95;;;;;;;;;;5114482;28;20032;-78
2022/01/18 02:36:16;;;;;;;6.40;4.40;;;;;;;;;;5114168;28;20446;-78
2022/01/18 02:38:42;;;;;;;7.10;4.20;;;;;;;;;;5113584;28;20080;-77
2022/01/18 02:41:08;;;;;;;7.22;5.13;;;;;;;;;;5114166;28;20016;-78
2022/01/18 02:43:46;;;;;;;5.97;4.10;;;;;;;;;;5113810;28;20044;-77
2022/01/18 02:46:12;;;;;;;6.10;4.30;;;;;;;;;;5114220;28;20095;-77
2022/01/18 02:48:39;;;;;;;4.32;3.60;;;;;;;;;;5113889;28;20028;-78
2022/01/18 02:51:05;;;;;;;5.88;4.22;;;;;;;;;;5114050;28;20148;-78
2022/01/18 02:53:31;;;;;;;5.22;3.58;;;;;;;;;;5113689;28;20043;-78
2022/01/18 02:55:58;;;;;;;6.78;4.40;;;;;;;;;;5113906;28;20483;-77
2022/01/18 02:58:28;;;;;;;7.25;4.05;;;;;;;;;;5095152;28;20019;-76
2022/01/18 03:03:29;;;;;;;4.57;3.50;;;;;;;;;;5113538;28;20036;-76
2022/01/18 03:05:57;;;;;;;5.70;4.25;;;;;;;;;;5113592;28;20375;-76
2022/01/18 03:08:23;;;;;;;6.93;4.30;;;;;;;;;;5113109;28;20545;-76
2022/01/18 03:10:49;;;;;;;6.78;4.00;;;;;;;;;;5113629;28;20487;-77
2022/01/18 03:13:18;;;;;;;7.65;4.05;;;;;;;;;;5113932;28;20023;-78
2022/01/18 03:15:44;;;;;;;7.03;4.03;;;;;;;;;;5113393;28;20372;-76
2022/01/18 03:18:10;;;;;;;6.72;4.20;;;;;;;;;;5113515;28;20476;-77
2022/01/18 03:20:37;;;;;;;7.32;4.43;;;;;;;;;;5113328;28;20015;-78
2022/01/18 03:23:07;;;;;;;6.50;4.30;;;;;;;;;;5113453;28;20046;-77
2022/01/18 03:28:05;;;;;;;7.18;4.03;;;;;;;;;;5113524;28;20036;-78
2022/01/18 03:30:32;;;;;;;6.40;4.30;;;;;;;;;;5112484;28;20547;-78
2022/01/18 03:32:58;;;;;;;6.72;4.22;;;;;;;;;;5113255;28;20101;-78
2022/01/18 03:35:24;;;;;;;7.32;4.43;;;;;;;;;;5112678;28;20023;-77
2022/01/18 03:37:50;;;;;;;6.75;4.05;;;;;;;;;;5113250;28;20517;-77
2022/01/18 03:40:16;;;;;;;7.22;4.25;;;;;;;;;;5113381;28;20019;-78
2022/01/18 03:42:45;;;;;;;6.55;4.30;;;;;;;;;;5112804;28;20495;-78
2022/01/18 03:45:13;;;;;;;5.40;3.72;;;;;;;;;;5094552;28;20403;-77
2022/01/18 03:47:39;;;;;;;5.57;3.95;;;;;;;;;;5112726;28;20106;-77
2022/01/18 03:50:06;;;;;;;6.85;4.60;;;;;;;;;;5112926;28;20027;-78
2022/01/18 03:52:33;;;;;;;6.97;4.30;;;;;;;;;;5112545;28;20032;-76
2022/01/18 03:54:59;;;;;;;7.65;3.97;;;;;;;;;;5112731;28;20050;-79
2022/01/18 03:57:25;;;;;;;6.90;4.15;;;;;;;;;;5112517;28;20059;-78
2022/01/18 03:59:51;;;;;;;5.70;3.50;;;;;;;;;;5112664;28;20030;-78
2022/01/18 04:02:17;;;;;;;7.13;3.70;;;;;;;;;;5112712;28;20074;-77
2022/01/18 04:04:43;;;;;;;9.07;4.13;;;;;;;;;;5094211;28;20047;-78
2022/01/18 04:07:09;;;;;;;7.53;4.40;;;;;;;;;;5112225;28;20035;-78
2022/01/18 04:09:35;;;;;;;7.85;4.28;;;;;;;;;;5112326;28;20032;-78
2022/01/18 04:12:01;;;;;;;7.90;4.32;;;;;;;;;;5094217;28;20498;-77
2022/01/18 04:14:27;;;;;;;8.05;4.43;;;;;;;;;;5112232;28;20031;-78
2022/01/18 04:17:29;;;;;;;7.00;4.10;;;;;;;;;;5112494;28;20023;-77
2022/01/18 04:30:53;;;;;;;7.80;4.47;;;;;;;;;;5112144;28;20411;-79
2022/01/18 04:33:20;;;;;;;8.60;4.50;;;;;;;;;;5112031;28;20020;-76
2022/01/18 04:35:46;;;;;;;8.50;4.60;;;;;;;;;;5111556;28;20020;-77
2022/01/18 04:38:12;;;;;;;7.30;4.20;;;;;;;;;;5111729;28;20023;-78
2022/01/18 04:40:41;;;;;;;7.38;4.22;;;;;;;;;;5111769;28;20077;-77
2022/01/18 04:43:38;;;;;;;7.95;4.80;;;;;;;;;;5111300;28;20038;-77
2022/01/18 04:48:49;;;;;;;7.38;4.18;;;;;;;;;;5111701;28;20050;-77
2022/01/18 04:51:15;;;;;;;6.07;4.20;;;;;;;;;;5112048;28;20095;-78
2022/01/18 04:53:48;;;;;;;7.13;4.85;;;;;;;;;;5111577;28;20526;-77
2022/01/18 04:56:17;;;;;;;8.10;4.70;;;;;;;;;;5111853;28;20019;-76
2022/01/18 04:58:43;;;;;;;8.40;4.20;;;;;;;;;;5111511;28;20110;-76
2022/01/18 05:01:10;;;;;;;6.93;3.83;;;;;;;;;;5111742;28;20509;-77
2022/01/18 05:03:36;;;;;;;7.93;4.28;;;;;;;;;;5111367;28;20034;-78
2022/01/18 05:06:12;;;;;;;6.07;4.20;;;;;;;;;;5093025;28;20115;-78
2022/01/18 05:08:39;;;;;;;7.15;4.53;;;;;;;;;;5111347;28;20102;-78
2022/01/18 05:11:06;;;;;;;7.25;4.85;;;;;;;;;;5111638;28;20487;-78
2022/01/18 05:21:29;;;;;;;8.27;4.75;;;;;;;;;;5111346;28;20383;-78
2022/01/18 05:23:55;;;;;;;7.40;4.53;;;;;;;;;;5111715;28;20028;-78
2022/01/18 05:26:21;;;;;;;11.13;5.40;;;;;;;;;;5111492;28;20024;-77
2022/01/18 05:28:48;;;;;;;8.30;4.82;;;;;;;;;;5111471;28;20032;-77
2022/01/18 05:31:14;;;;;;;9.93;5.57;;;;;;;;;;5111420;28;20391;-78
2022/01/18 05:33:42;;;;;;;8.57;4.97;;;;;;;;;;5111045;28;20032;-78
2022/01/18 05:36:08;;;;;;;10.32;5.05;;;;;;;;;;5111158;28;20023;-78
2022/01/18 05:38:35;;;;;;;6.63;4.40;;;;;;;;;;5111173;28;20031;-78
2022/01/18 05:41:01;;;;;;;8.35;4.82;;;;;;;;;;5111356;28;20099;-78
2022/01/18 05:43:27;;;;;;;9.40;4.78;;;;;;;;;;5110915;28;20040;-76
2022/01/18 05:45:53;;;;;;;8.43;4.50;;;;;;;;;;5111362;28;20549;-77
2022/01/18 05:48:19;;;;;;;9.05;4.68;;;;;;;;;;5111735;28;20038;-79
2022/01/18 05:50:45;;;;;;;7.15;4.78;;;;;;;;;;5111039;28;20052;-78
2022/01/18 05:53:11;;;;;;;9.30;5.70;;;;;;;;;;5111599;28;20051;-78
2022/01/18 05:55:37;;;;;;;8.82;4.75;;;;;;;;;;5114783;28;20028;-78
2022/01/18 05:58:04;;;;;;;8.57;5.45;;;;;;;;;;5115149;28;20023;-78
2022/01/18 06:00:31;;;;;;;8.20;4.43;;;;;;;;;;5114405;28;20024;-77
2022/01/18 06:08:13;;;;;;;6.97;4.55;;;;;;;;;;5085760;28;20458;-79
2022/01/18 06:10:39;;;;;;;9.52;4.78;;;;;;;;;;5096166;28;20027;-79
2022/01/18 06:13:07;;;;;;;10.05;4.80;;;;;;;;;;5114582;28;20372;-79
2022/01/18 06:15:34;;;;;;;10.05;4.90;;;;;;;;;;5114467;28;20026;-78
2022/01/18 06:18:00;;;;;;;10.35;4.82;;;;;;;;;;5114697;28;20399;-78
2022/01/18 06:20:26;;;;;;;7.10;4.38;;;;;;;;;;5114553;28;20024;-78
2022/01/18 06:22:52;;;;;;;7.65;4.72;;;;;;;;;;5114525;28;20070;-78
2022/01/18 06:25:19;;;;;;;7.40;4.72;;;;;;;;;;5114767;28;20019;-77
2022/01/18 06:27:45;;;;;;;8.55;4.80;;;;;;;;;;5114015;28;20030;-77
2022/01/18 06:30:11;;;;;;;7.32;4.75;;;;;;;;;;5114187;28;20099;-77
2022/01/18 06:32:38;;;;;;;10.93;6.05;;;;;;;;;;5114116;28;20051;-77
2022/01/18 06:35:05;;;;;;;8.38;5.05;;;;;;;;;;5114346;28;20035;-77
2022/01/18 06:37:31;;;;;;;10.00;5.28;;;;;;;;;;5114056;28;20111;-77
2022/01/18 06:39:58;;;;;;;7.60;4.88;;;;;;;;;;5095438;28;20023;-74
2022/01/18 06:42:25;;;;;;;8.60;4.60;;;;;;;;;;5113962;28;20036;-76
2022/01/18 06:44:52;;;;;;;9.57;5.90;;;;;;;;;;5114089;28;20031;-81
2022/01/18 06:47:18;;;;;;;9.00;5.43;;;;;;;;;;5114123;28;20394;-76
2022/01/18 06:49:44;;;;;;;9.48;4.68;;;;;;;;;;5113535;28;20059;-76
2022/01/18 06:52:10;;;;;;;8.55;4.65;;;;;;;;;;5114017;28;20051;-76
2022/01/18 06:54:36;;;;;;;9.25;4.47;;;;;;;;;;5113742;28;20116;-76
2022/01/18 06:57:02;;;;;;;9.20;5.20;;;;;;;;;;5113828;28;20024;-76
2022/01/18 06:59:28;;;;;;;10.32;5.20;;;;;;;;;;5113709;28;20467;-79
2022/01/18 07:01:54;;;;;;;10.73;4.35;;;;;;;;;;5113152;28;20028;-76
2022/01/18 07:04:20;;;;;;;10.45;5.00;;;;;;;;;;5114121;28;20028;-78
2022/01/18 07:06:46;;;;;;;11.43;4.70;;;;;;;;;;5112735;28;20019;-75
2022/01/18 07:09:22;;;;;;;10.02;5.20;;;;;;;;;;5113428;28;20035;-79
2022/01/18 07:11:48;;;;;;;8.20;4.65;;;;;;;;;;5113353;28;20426;-75
2022/01/18 07:14:14;;;;;;;9.85;5.53;;;;;;;;;;5113426;28;20446;-78
2022/01/18 07:16:40;;;;;;;9.38;4.35;;;;;;;;;;5113303;28;20030;-79
2022/01/18 07:19:06;;;;;;;9.90;4.63;;;;;;;;;;5113435;28;20076;-78
2022/01/18 07:21:32;;;;;;;12.13;4.95;;;;;;;;;;5113067;28;20035;-77
2022/01/18 07:24:05;;;;;;;14.25;5.43;;;;;;;;;;5113384;28;20050;-78
2022/01/18 07:26:31;;;;;;;9.80;5.10;;;;;;;;;;5113013;28;20020;-77
2022/01/18 07:28:57;;;;;;;10.85;5.30;;;;;;;;;;5113294;28;20034;-78
2022/01/18 07:31:23;;;;;;;10.13;5.50;;;;;;;;;;5113149;28;20027;-78
2022/01/18 07:33:49;;;;;;;10.10;5.18;;;;;;;;;;5112222;28;20028;-77
2022/01/18 07:36:15;;;;;;;13.95;5.72;;;;;;;;;;5112335;28;20551;-79
2022/01/18 07:38:41;;;;;;;10.63;5.80;;;;;;;;;;5094432;28;20027;-77
2022/01/18 07:41:07;;;;;;;8.20;5.00;;;;;;;;;;5113105;28;20015;-76
2022/01/18 07:43:35;;;;;;;9.27;5.13;;;;;;;;;;5112609;28;20039;-76
2022/01/18 07:46:01;;;;;;;10.50;5.63;;;;;;;;;;5112056;28;20024;-76
2022/01/18 07:48:26;;;;;;;10.02;6.15;;;;;;;;;;5111288;28;20487;-75
2022/01/18 07:50:57;;;;;;;10.13;5.78;;;;;;;;;;5111495;28;20012;-76
2022/01/18 07:53:23;;;;;;;9.93;5.43;;;;;;;;;;5111428;28;20136;-76
2022/01/18 07:55:49;;;;;;;9.43;5.90;;;;;;;;;;5111030;28;20042;-75
2022/01/18 07:58:15;;;;;;;12.05;6.00;;;;;;;;;;5111026;28;20152;-75
2022/01/18 08:00:41;;;;;;;13.95;6.07;;;;;;;;;;5111437;28;20027;-75
2022/01/18 08:03:07;;;;;;;9.63;5.68;;;;;;;;;;5112497;28;20031;-76
2022/01/18 08:05:33;;;;;;;13.88;6.75;;;;;;;;;;5110075;28;20035;-75
2022/01/18 08:07:59;;;;;;;10.85;6.10;;;;;;;;;;5111267;28;20110;-75
2022/01/18 08:10:30;;;;;;;8.60;5.00;;;;;;;;;;5101689;27;20027;-76
2022/01/18 08:12:57;;;;;;;10.68;6.38;;;;;;;;;;5118234;27;20081;-75
2022/01/18 08:15:23;;;;;;;13.45;7.93;;;;;;;;;;5112784;28;20185;-74
2022/01/18 08:17:50;;;;;;;13.00;7.05;;;;;;;;;;5111159;28;20034;-74
2022/01/18 08:20:18;;;;;;;37.17;11.88;;;;;;;;;;5111224;28;20383;-74
2022/01/18 08:22:45;;;;;;;31.67;11.55;;;;;;;;;;5111700;28;20538;-74
2022/01/18 08:25:12;;;;;;;22.25;9.50;;;;;;;;;;5112138;28;20023;-74
2022/01/18 08:27:38;;;;;;;19.30;9.50;;;;;;;;;;5110311;28;20027;-73
2022/01/18 08:30:06;;;;;;;24.58;9.88;;;;;;;;;;5110874;28;20437;-74
2022/01/18 08:32:31;;;;;;;21.40;9.80;;;;;;;;;;5110129;28;20085;-74
2022/01/18 08:34:57;;;;;;;28.20;9.25;;;;;;;;;;5112052;28;20887;-74
2022/01/18 08:37:23;;;;;;;18.83;9.45;;;;;;;;;;5112300;28;20102;-74
2022/01/18 08:39:50;;;;;;;17.67;9.48;;;;;;;;;;5110159;28;20098;-74
2022/01/18 08:42:16;;;;;;;29.95;10.43;;;;;;;;;;5107440;28;20073;-74
2022/01/18 08:44:43;;;;;;;23.92;10.77;;;;;;;;;;5109873;28;20495;-74
2022/01/18 08:47:13;;;;;;;18.88;9.57;;;;;;;;;;5110434;28;20072;-75
2022/01/18 08:49:39;;;;;;;17.98;9.73;;;;;;;;;;5110675;28;20027;-75
2022/01/18 08:52:05;;;;;;;18.38;9.40;;;;;;;;;;5110339;28;20047;-74
2022/01/18 08:54:31;;;;;;;18.95;9.05;;;;;;;;;;5110194;28;20043;-75
2022/01/18 08:56:57;;;;;;;18.33;8.77;;;;;;;;;;5111659;28;20028;-75
2022/01/18 08:59:23;;;;;;;19.10;9.10;;;;;;;;;;5111891;28;20031;-75
2022/01/18 09:01:50;;;;;;;18.15;9.05;;;;;;;;;;5089834;28;20119;-75
2022/01/18 09:04:16;;;;;;;18.70;9.40;;;;;;;;;;5111609;28;20102;-75
2022/01/18 09:06:44;;;;;;;23.92;9.23;;;;;;;;;;5111446;28;20534;-75
2022/01/18 09:09:14;;;;;;;15.38;7.93;;;;;;;;;;5111751;28;20016;-75
2022/01/18 09:11:40;;;;;;;17.65;8.70;;;;;;;;;;5093171;28;20073;-75
2022/01/18 09:14:06;;;;;;;15.48;8.68;;;;;;;;;;5111636;28;20394;-75
2022/01/18 09:16:32;;;;;;;16.65;9.00;;;;;;;;;;5111280;28;20059;-75
2022/01/18 09:18:58;;;;;;;18.02;8.73;;;;;;;;;;5111496;28;20020;-76
2022/01/18 09:21:26;;;;;;;17.45;7.85;;;;;;;;;;5111830;28;20069;-75
2022/01/18 09:23:52;;;;;;;16.60;7.80;;;;;;;;;;5093252;28;20035;-76
2022/01/18 09:26:18;;;;;;;15.73;8.75;;;;;;;;;;5111560;28;20024;-75
2022/01/18 09:28:44;;;;;;;14.32;7.82;;;;;;;;;;5112676;28;20080;-75
2022/01/18 09:31:10;;;;;;;16.10;7.75;;;;;;;;;;5114661;28;20102;-75
2022/01/18 09:33:37;;;;;;;16.27;8.88;;;;;;;;;;5114881;28;20046;-75
2022/01/18 09:36:03;;;;;;;14.27;7.82;;;;;;;;;;5115560;28;20426;-75
2022/01/18 09:38:29;;;;;;;14.50;7.75;;;;;;;;;;5115287;28;20027;-75
2022/01/18 09:40:56;;;;;;;17.55;8.57;;;;;;;;;;5115764;28;20016;-75
2022/01/18 09:43:22;;;;;;;16.73;8.43;;;;;;;;;;5115445;28;20112;-76
2022/01/18 09:45:48;;;;;;;16.08;7.35;;;;;;;;;;5115095;28;20030;-75
2022/01/18 09:48:14;;;;;;;15.35;8.57;;;;;;;;;;5115358;28;20027;-75
2022/01/18 09:50:42;;;;;;;15.75;7.88;;;;;;;;;;5115029;28;20501;-75
2022/01/18 09:53:11;;;;;;;16.33;8.20;;;;;;;;;;5096945;28;20044;-75
2022/01/18 09:55:37;;;;;;;15.98;7.68;;;;;;;;;;5114813;28;20120;-75
2022/01/18 09:58:06;;;;;;;14.15;8.18;;;;;;;;;;5115123;28;20028;-75
2022/01/18 10:00:32;;;;;;;17.73;7.80;;;;;;;;;;5114226;28;20092;-75
2022/01/18 10:02:59;;;;;;;12.90;7.95;;;;;;;;;;5115012;28;20039;-76
2022/01/18 10:05:26;;;;;;;12.10;7.50;;;;;;;;;;5115310;28;20022;-75
2022/01/18 10:08:00;;;;;;;13.85;7.28;;;;;;;;;;5114872;28;20046;-75
2022/01/18 10:10:41;;;;;;;14.95;7.85;;;;;;;;;;5115141;28;20387;-75
2022/01/18 10:13:08;;;;;;;13.27;7.38;;;;;;;;;;5114867;28;20106;-75
2022/01/18 10:15:35;;;;;;;12.75;7.75;;;;;;;;;;5114509;28;20487;-76
2022/01/18 10:18:08;;;;;;;15.65;7.10;;;;;;;;;;5114756;28;20077;-75
2022/01/18 10:20:48;;;;;;;14.95;8.23;;;;;;;;;;5114145;28;20027;-76
2022/01/18 10:23:24;;;;;;;14.98;8.57;;;;;;;;;;5114524;28;20043;-76
2022/01/18 10:25:50;;;;;;;14.38;8.00;;;;;;;;;;5114332;28;20024;-76
2022/01/18 10:28:29;;;;;;;12.13;8.00;;;;;;;;;;5113434;28;20031;-76
2022/01/18 10:30:55;;;;;;;12.98;7.15;;;;;;;;;;5114734;28;20028;-76
2022/01/18 10:33:28;;;;;;;11.88;7.68;;;;;;;;;;5114379;28;20073;-76
2022/01/18 10:36:15;;;;;;;11.88;7.22;;;;;;;;;;5114547;28;20059;-76
2022/01/18 10:38:43;;;;;;;12.63;7.63;;;;;;;;;;5113358;28;20069;-75
2022/01/18 10:41:22;;;;;;;14.43;7.60;;;;;;;;;;5112965;28;20026;-75
2022/01/18 10:44:02;;;;;;;12.10;7.43;;;;;;;;;;5113835;28;20071;-76
2022/01/18 10:46:33;;;;;;;10.60;6.57;;;;;;;;;;5114037;28;20073;-76
2022/01/18 10:48:59;;;;;;;12.52;7.00;;;;;;;;;;5113864;28;20073;-75
2022/01/18 10:51:27;;;;;;;12.45;7.53;;;;;;;;;;5114363;28;20518;-76
2022/01/18 10:53:59;;;;;;;12.13;7.35;;;;;;;;;;5114314;28;20027;-75
2022/01/18 10:56:26;;;;;;;12.85;7.10;;;;;;;;;;5096262;28;20441;-75
2022/01/18 10:58:53;;;;;;;12.07;7.20;;;;;;;;;;5113216;28;20020;-75
2022/01/18 11:01:22;;;;;;;11.55;6.30;;;;;;;;;;5113286;28;20027;-75
2022/01/18 11:04:07;;;;;;;11.30;6.15;;;;;;;;;;5113337;28;20414;-75
2022/01/18 11:06:34;;;;;;;14.52;7.43;;;;;;;;;;5101713;28;20031;-75
2022/01/18 11:09:13;;;;;;;10.80;6.70;;;;;;;;;;5113800;28;20072;-76
2022/01/18 11:11:43;;;;;;;12.65;6.88;;;;;;;;;;5113569;28;20019;-76
2022/01/18 11:14:11;;;;;;;12.43;7.95;;;;;;;;;;5113166;28;20016;-75
2022/01/18 11:16:41;;;;;;;9.93;7.18;;;;;;;;;;5109774;27;20027;-75
2022/01/18 11:21:46;;;;;;;12.25;6.90;;;;;;;;;;5109443;27;20066;-75
2022/01/18 11:24:15;;;;;;;12.45;7.35;;;;;;;;;;5114871;27;20032;-75
2022/01/18 11:26:42;;;;;;;12.05;6.97;;;;;;;;;;5113202;28;20379;-75
2022/01/18 11:29:09;;;;;;;12.55;7.07;;;;;;;;;;5113092;28;20496;-75
2022/01/18 11:31:35;;;;;;;12.15;7.50;;;;;;;;;;5117062;27;20028;-75
2022/01/18 11:34:01;;;;;;;12.95;7.40;;;;;;;;;;5126900;27;20027;-75
2022/01/18 11:36:32;;;;;;;10.35;6.72;;;;;;;;;;5128173;27;20030;-75
2022/01/18 11:39:00;;;;;;;13.68;6.93;;;;;;;;;;5115910;27;20026;-75
2022/01/18 11:41:31;;;;;;;16.02;7.88;;;;;;;;;;5100132;27;20028;-75
2022/01/18 11:43:59;;;;;;;19.67;8.50;;;;;;;;;;5122868;27;20486;-75
2022/01/18 11:46:25;;;;;;;17.88;7.82;;;;;;;;;;5129730;27;20556;-75
2022/01/18 11:49:06;;;;;;;20.70;8.27;;;;;;;;;;5133449;27;20023;-74
2022/01/18 11:51:47;;;;;;;18.13;8.45;;;;;;;;;;5132931;27;20494;-75
2022/01/18 11:57:24;;;;;;;15.88;7.63;;;;;;;;;;5123349;27;20111;-74
2022/01/18 11:59:49;;;;;;;17.85;8.13;;;;;;;;;;5104487;27;20058;-75
2022/01/18 12:02:30;;;;;;;14.80;7.88;;;;;;;;;;5118635;27;20059;-75
2022/01/18 12:05:03;;;;;;;16.25;8.00;;;;;;;;;;5117557;27;20034;-76
2022/01/18 12:07:39;;;;;;;14.98;7.30;;;;;;;;;;5124143;27;20038;-75
2022/01/18 12:10:06;;;;;;;21.48;8.13;;;;;;;;;;5124810;27;20379;-78
2022/01/18 12:12:49;;;;;;;15.02;7.15;;;;;;;;;;5093598;28;20122;-77
2022/01/18 12:15:15;;;;;;;14.35;6.93;;;;;;;;;;5112586;28;20043;-77
2022/01/18 12:17:50;;;;;;;16.35;7.43;;;;;;;;;;5112102;28;20035;-76
2022/01/18 12:20:35;;;;;;;18.35;7.32;;;;;;;;;;5112084;28;20831;-78
2022/01/18 12:23:07;;;;;;;13.68;6.70;;;;;;;;;;5112310;28;20031;-76
2022/01/18 12:25:35;;;;;;;16.77;7.22;;;;;;;;;;5111980;28;20051;-76
2022/01/18 12:28:31;;;;;;;19.77;7.47;;;;;;;;;;5111803;28;20016;-75
2022/01/18 12:31:06;;;;;;;17.60;8.32;;;16.80;57.50;;;;;;5070369;28;20085;-77
2022/01/18 12:33:43;;;;;;;19.80;8.40;;;;;;;;;;5093634;28;20024;-76
2022/01/18 12:36:28;;;;;;;25.75;8.55;;;;;;;;;;5112103;28;20106;-75
2022/01/18 12:38:58;;;;;;;19.00;8.15;;;;;;;;;;5112307;28;20026;-75
2022/01/18 12:41:40;;;;;;;15.13;7.93;;;;;;;;;;5112352;28;20023;-76
2022/01/18 12:44:21;;;;;;;18.25;7.57;;;;;;;;;;5093583;28;20065;-77
2022/01/18 12:46:54;;;;;;;18.63;8.50;;;;;;;;;;5093388;28;20340;-76
2022/01/18 12:49:20;;;;;;;13.98;8.23;;;;;;;;;;5111905;28;20031;-76
2022/01/18 12:51:46;;;;;;;16.00;8.02;;;;;;;;;;5111574;28;20016;-75
2022/01/18 12:54:12;;;;;;;17.10;8.48;;;;;;;;;;5111719;28;20027;-76
2022/01/18 12:56:38;;;;;;;19.15;7.85;;;;;;;;;;5111552;28;20361;-76
2022/01/18 12:59:05;;;;;;;16.77;7.28;;;;;;;;;;5111150;28;20032;-76
2022/01/18 13:01:33;;;;;;;17.30;8.45;;;;;;;;;;5111071;28;20024;-79
2022/01/18 13:03:59;;;;;;;13.57;8.50;;;;;;;;;;5109638;28;20468;-78
2022/01/18 13:06:29;;;;;;;14.60;7.95;;;;;;;;;;5111684;28;20042;-77
2022/01/18 13:08:57;;;;;;;12.52;7.65;;;;;;;;;;5111897;28;20028;-79
2022/01/18 13:11:23;;;;;;;18.15;8.90;;;;;;;;;;5111353;28;20513;-77
2022/01/18 13:13:55;;;;;;;15.73;8.77;;;;;;;;;;5111300;28;20099;-78
2022/01/18 13:27:28;;;;;;;14.30;8.13;;;;;;;;;;5111270;28;20046;-77
2022/01/18 13:29:51;;;;;;;15.07;8.50;;;;;;;;;;5110233;28;20035;-82
2022/01/18 13:32:20;;;;;;;15.05;8.40;;;;;;;;;;5110017;28;20110;-84
2022/01/18 13:34:51;;;;;;;15.93;8.35;;;;;;;;;;5091330;28;20022;-82
2022/01/18 13:37:18;;;;;;;16.85;8.57;;;;;;;;;;5109738;28;20031;-82
2022/01/18 13:39:48;;;;;;;16.48;9.13;;;;;;;;;;5109533;28;20058;-77
2022/01/18 13:42:22;;;;;;;14.80;8.35;;;;;;;;;;5109428;28;20030;-78
2022/01/18 13:45:07;;;;;;;13.95;7.57;;;;;;;;;;5109578;28;20518;-77
2022/01/18 13:47:41;;;;;;;16.60;9.23;;;;;;;;;;5108888;28;20398;-77
2022/01/18 13:50:08;;;;;;;15.15;8.85;;;;;;;;;;5109066;28;20099;-78
2022/01/18 13:52:34;;;;;;;14.52;8.57;;;;;;;;;;5111025;28;20039;-85
2022/01/18 13:55:00;;;;;;;14.85;8.88;;;;;;;;;;5110654;28;20429;-78
2022/01/18 13:57:26;;;;;;;16.70;8.65;;;;;;;;;;5109859;28;20104;-78
2022/01/18 13:59:52;;;;;;;11.80;8.10;;;;;;;;;;5091898;28;20024;-78
2022/01/18 14:02:19;;;;;;;18.60;9.02;;;;;;;;;;5110235;28;20063;-82
2022/01/18 14:04:46;;;;;;;11.52;7.63;;;;;;;;;;5110544;28;20024;-82
2022/01/18 14:07:13;;;;;;;15.23;9.05;;;;;;;;;;5111134;28;20020;-81
2022/01/18 14:09:40;;;;;;;14.80;8.43;;;;;;;;;;5110821;28;20022;-80
2022/01/18 14:12:13;;;;;;;16.25;8.63;;;;;;;;;;5110319;28;20050;-82
2022/01/18 14:14:42;;;;;;;15.50;9.25;;;;;;;;;;5111550;28;20036;-79
2022/01/18 14:17:13;;;;;;;14.73;8.60;;;;;;;;;;5095083;28;20028;-78
2022/01/18 14:19:40;;;;;;;15.88;9.35;;;;;;;;;;5112587;27;20031;-83
2022/01/18 14:22:13;;;;;;;15.90;9.02;;;;;;;;;;5111350;28;20475;-83
2022/01/18 14:24:41;;;;;;;15.25;8.57;;;;;;;;;;5114370;28;20030;-79
2022/01/18 14:27:09;;;;;;;14.90;9.10;;;;;;;;;;5113928;28;20034;-82
2022/01/18 14:29:41;;;;;;;12.85;7.78;;;;;;;;;;5113724;28;20027;-80
2022/01/18 14:32:07;;;;;;;18.45;9.82;;;;;;;;;;5114356;28;20031;-78
2022/01/18 14:34:40;;;;;;;14.77;8.60;;;;;;;;;;5114207;28;20379;-82
2022/01/18 14:37:07;;;;;;;18.55;8.93;;;;;;;;;;5112371;27;20066;-80
2022/01/18 14:39:33;;;;;;;17.13;9.48;;;;;;;;;;5095244;28;20055;-80
2022/01/18 14:42:04;;;;;;;16.83;8.65;;;;;;;;;;5114303;28;20024;-80
2022/01/18 14:44:59;;;;;;;15.25;9.88;;;;;;;;;;5113824;28;20039;-80
2022/01/18 14:47:25;;;;;;;14.85;9.13;;;;;;;;;;5113432;28;20031;-77
2022/01/18 14:49:55;;;;;;;17.23;9.45;;;;;;;;;;5112209;28;20019;-78
2022/01/18 14:52:21;;;;;;;14.10;8.88;;;;;;;;;;5112353;28;20030;-78
2022/01/18 14:54:47;;;;;;;15.25;9.55;;;;;;;;;;5113160;28;20614;-77
2022/01/18 14:57:13;;;;;;;17.08;8.50;;;;;;;;;;5112341;28;20091;-84
2022/01/18 14:59:39;;;;;;;15.60;9.55;;;;;;;;;;5112047;28;20020;-82
2022/01/18 15:02:05;;;;;;;13.52;8.38;;;;;;;;;;5112259;28;20036;-77
2022/01/18 15:04:31;;;;;;;17.67;9.88;;;;;;;;;;5112499;28;20024;-79
2022/01/18 15:06:58;;;;;;;18.65;9.80;;;;;;;;;;5112863;28;20030;-77
2022/01/18 15:09:28;;;;;;;15.18;9.65;;;;;;;;;;5113948;28;20034;-77
2022/01/18 15:11:55;;;;;;;15.50;8.85;;;;;;;;;;5114091;28;20027;-77
2022/01/18 15:14:21;;;;;;;13.38;8.43;;;;;;;;;;5113350;28;20024;-78
2022/01/18 15:16:47;;;;;;;13.60;8.65;;;;;;;;;;5113291;28;20111;-78
2022/01/18 15:19:13;;;;;;;18.00;8.95;;;;;;;;;;5113090;28;20034;-77
2022/01/18 15:21:39;;;;;;;14.40;8.20;;;;;;;;;;5113234;28;20031;-76
2022/01/18 15:24:06;;;;;;;15.98;9.10;;;;;;;;;;5113526;28;20475;-77
2022/01/18 15:26:32;;;;;;;15.13;8.40;;;;;;;;;;5112511;28;20076;-77
2022/01/18 15:28:58;;;;;;;14.10;7.95;;;;;;;;;;5113344;28;20024;-79
2022/01/18 15:31:24;;;;;;;16.60;8.32;;;;;;;;;;5113415;28;20032;-79
2022/01/18 15:33:50;;;;;;;13.43;7.88;;;;;;;;;;5112955;28;20107;-78
2022/01/18 15:36:16;;;;;;;15.63;8.35;;;;;;;;;;5094411;28;20027;-77
2022/01/18 15:38:42;;;;;;;12.50;8.20;;;;;;;;;;5113014;28;20027;-79
2022/01/18 15:41:08;;;;;;;14.60;7.65;;;;;;;;;;5113079;28;20066;-82
2022/01/18 15:43:34;;;;;;;12.40;7.68;;;;;;;;;;5112708;28;20071;-79
2022/01/18 15:46:02;;;;;;;14.52;7.80;;;;;;;;;;5113210;28;20024;-84
2022/01/18 15:48:28;;;;;;;12.00;7.38;;;;;;;;;;5094233;27;20027;-84
2022/01/18 15:50:54;;;;;;;11.75;7.13;;;;;;;;;;5094086;28;20106;-84
2022/01/18 15:53:20;;;;;;;14.32;8.18;;;;;;;;;;5112962;28;20081;-79
2022/01/18 15:55:46;;;;;;;12.77;7.90;;;;;;;;;;5112580;28;20027;-83
2022/01/18 15:58:13;;;;;;;14.02;8.02;;;;;;;;;;5112874;28;20429;-82
2022/01/18 16:00:42;;;;;;;14.70;8.38;;;;;;;;;;5112549;28;20022;-80
2022/01/18 16:03:08;;;;;;;14.57;8.02;;;;;;;;;;5111405;28;20403;-78
2022/01/18 16:05:34;;;;;;;11.15;7.70;;;;;;;;;;5110738;28;20012;-80
2022/01/18 16:08:02;;;;;;;12.40;7.60;;;;;;;;;;5111011;28;20051;-81
2022/01/18 16:10:28;;;;;;;12.15;7.22;;;;;;;;;;5110613;28;20517;-81
2022/01/18 16:12:56;;;;;;;12.38;6.80;;;;;;;;;;5111209;28;20080;-82
2022/01/18 16:15:22;;;;;;;12.32;8.00;;;;;;;;;;5110884;28;20051;-82
2022/01/18 16:17:48;;;;;;;13.30;7.20;;;;;;;;;;5110530;28;20027;-80